Weather History for Iowa Falls, IA

Change the Weather History Date:

Friday, May 3, 2013

  Actual Average Record
Temperature  
Mean Temperature 33 °F -  
Max Temperature 34 °F 67 °F 90 °F (1949)
Min Temperature 32 °F 42 °F 28 °F (1954)
Degree Days  
Heating Degree Days 32    
Moisture  
Dew Point 31 °F    
Average Humidity 91    
Maximum Humidity 96    
Minimum Humidity 84    
Precipitation  
Precipitation 0.00 in - - ()
Sea Level Pressure  
Sea Level Pressure 30.13 in    
Wind  
Wind Speed 15 mph (North)    
Max Wind Speed 20 mph    
Max Gust Speed 29 mph    
Visibility 6 miles    
Events Rain , Snow    
Averages and records for this station are not official NWS values.
T = Trace of Precipitation, MM = Missing Value Source: NWS Daily Summary

Daily Weather History Graph

Daily Weather History Graph

Search for Another Location

Airport:

Trip Planner

Search our weather history database for the weather conditions in past years. The results will help you decide how hot, cold, wet, or windy it might be!

Date:

Astronomy

May. 03, 2013 Rise Set
Actual Time 6:05 AM CDT 8:15 PM CDT
Civil Twilight 5:34 AM CDT 8:46 PM CDT
Nautical Twilight 4:56 AM CDT 9:24 PM CDT
Astronomical Twilight 4:14 AM CDT 10:06 PM CDT
Moon 2:37 AM CDT (5/3) 2:03 PM CDT (5/3)
Length of Visible Light 15h 12m
Length of Day
14h 10m
Last Quarter, 37% of the Moon is Illuminated
May 3
Last Quarter
May 9
New
May 17
First Quarter
May 24
Full
May 31
Last Quarter

Hourly Weather History & Observations

Time (CDT) Temp. Windchill Dew Point Humidity Pressure Visibility Wind Dir Wind Speed Gust Speed Precip Events Conditions
12:15 AM 33.1 °F 24.4 °F 32.0 °F 96% 30.33 in 2.0 mi North 11.5 mph 19.6 mph N/A Snow Light Snow
12:55 AM 32.9 °F 24.1 °F 32.0 °F 96% 30.34 in 2.0 mi North 11.5 mph - N/A Snow Light Snow
1:15 AM 32.9 °F 25.3 °F 32.0 °F 96% 30.33 in 3.0 mi North 9.2 mph - N/A Snow Light Snow
1:35 AM 32.9 °F 22.4 °F 32.0 °F 96% 30.31 in 1.0 mi North 16.1 mph 20.7 mph N/A Snow Snow
1:55 AM 32.9 °F 23.2 °F 32.0 °F 96% 30.30 in 1.2 mi North 13.8 mph 19.6 mph N/A Snow Light Snow
2:15 AM 32.9 °F 24.1 °F 31.8 °F 96% 30.27 in 1.5 mi North 11.5 mph 17.3 mph N/A Snow Light Snow
2:35 AM 32.9 °F 22.0 °F 31.8 °F 96% 30.26 in 2.0 mi North 17.3 mph 26.5 mph N/A Snow Light Snow
2:55 AM 32.9 °F 22.8 °F 31.5 °F 94% 30.25 in 3.0 mi North 15.0 mph 23.0 mph N/A Snow Light Snow
3:15 AM 32.7 °F 23.4 °F 31.5 °F 95% 30.26 in 0.8 mi North 12.7 mph 21.9 mph N/A Snow Snow
3:35 AM 32.5 °F 22.3 °F 31.5 °F 96% 30.24 in 1.8 mi North 15.0 mph 20.7 mph N/A Snow Light Snow
3:55 AM 32.4 °F 21.7 °F 31.3 °F 96% 30.23 in 2.0 mi North 16.1 mph 21.9 mph N/A Snow Light Snow
4:15 AM 32.4 °F 20.9 °F 31.1 °F 95% 30.23 in 2.5 mi North 18.4 mph 24.2 mph N/A Snow Light Snow
4:35 AM 32.4 °F 21.7 °F 31.1 °F 95% 30.23 in 1.2 mi North 16.1 mph 24.2 mph N/A Snow Light Snow
4:55 AM 32.2 °F 22.3 °F 31.1 °F 96% 30.21 in 1.5 mi North 13.8 mph - N/A Snow Light Snow
5:15 AM 32.0 °F 21.6 °F 31.1 °F 96% 30.20 in 1.5 mi North 15.0 mph 20.7 mph N/A Snow Light Snow
5:35 AM 32.0 °F 21.6 °F 30.9 °F 96% 30.19 in 1.5 mi North 15.0 mph 21.9 mph N/A Snow Light Snow
5:55 AM 32.0 °F 21.6 °F 30.6 °F 94% 30.20 in 2.0 mi North 15.0 mph - N/A Snow Light Snow
6:15 AM 32.0 °F 22.5 °F 30.2 °F 93% 30.21 in 1.8 mi North 12.7 mph 21.9 mph N/A Snow Light Snow
6:35 AM 32.0 °F 23.0 °F 30.2 °F 93% 30.22 in 1.8 mi North 11.5 mph 18.4 mph N/A Snow Light Snow
6:55 AM 32.0 °F 22.5 °F 30.4 °F 94% 30.22 in 0.5 mi North 12.7 mph 19.6 mph N/A Snow Snow
7:15 AM 32.0 °F 22.1 °F 30.2 °F 93% 30.20 in 0.5 mi North 13.8 mph 23.0 mph N/A Snow Snow
7:35 AM 32.0 °F 21.6 °F 30.2 °F 93% 30.20 in 0.5 mi North 15.0 mph - N/A Snow Light Snow
7:55 AM 32.0 °F 21.6 °F 30.2 °F 93% 30.19 in 1.2 mi North 15.0 mph 20.7 mph N/A Snow Light Snow
8:15 AM 32.0 °F 21.2 °F 30.0 °F 92% 30.19 in 0.5 mi North 16.1 mph - N/A Snow Light Snow
8:35 AM 32.0 °F 21.6 °F 30.0 °F 92% 30.17 in 0.5 mi North 15.0 mph 23.0 mph N/A Snow Light Snow
9:15 AM 32.4 °F 22.1 °F 30.2 °F 92% 30.17 in 1.2 mi North 15.0 mph 21.9 mph N/A Snow Light Snow
9:35 AM 32.4 °F 21.3 °F 30.2 °F 92% 30.17 in 2.0 mi North 17.3 mph 23.0 mph N/A Snow Light Snow
9:55 AM 32.4 °F 22.5 °F 30.2 °F 92% 30.16 in 1.2 mi North 13.8 mph 24.2 mph N/A Snow Light Snow
10:15 AM 32.5 °F 21.2 °F 30.0 °F 90% 30.15 in 4.0 mi North 18.4 mph 25.3 mph N/A Snow Light Snow
10:35 AM 32.4 °F 21.7 °F 30.2 °F 92% 30.15 in 2.5 mi North 16.1 mph 23.0 mph N/A Snow Light Snow
10:55 AM 33.3 °F 22.1 °F 30.2 °F 89% 30.14 in 3.0 mi North 18.4 mph 21.9 mph N/A Snow Light Snow
11:15 AM 33.3 °F 22.5 °F 30.0 °F 88% 30.13 in 4.0 mi North 17.3 mph 23.0 mph N/A Snow Light Snow
11:35 AM 33.4 °F 22.7 °F 29.7 °F 86% 30.12 in 7.0 mi North 17.3 mph 24.2 mph N/A   Overcast
11:55 AM 33.6 °F 22.6 °F 29.8 °F 86% 30.12 in 10.0 mi North 18.4 mph 23.0 mph N/A   Overcast
12:35 PM 33.8 °F 23.2 °F 29.3 °F 84% 30.10 in 10.0 mi North 17.3 mph 24.2 mph N/A   Overcast
12:55 PM 33.8 °F 22.8 °F 29.3 °F 84% 30.10 in 10.0 mi North 18.4 mph 25.3 mph N/A   Overcast
1:15 PM 33.8 °F 23.9 °F 29.3 °F 84% 30.10 in 10.0 mi North 15.0 mph 20.7 mph N/A   Overcast
1:35 PM 33.8 °F 23.2 °F 29.3 °F 84% 30.11 in 10.0 mi North 17.3 mph - N/A   Overcast
1:55 PM 33.8 °F 23.9 °F 29.8 °F 85% 30.10 in 10.0 mi North 15.0 mph 18.4 mph N/A   Overcast
2:15 PM 33.8 °F 23.9 °F 30.0 °F 86% 30.09 in 7.0 mi North 15.0 mph 24.2 mph N/A   Overcast
2:35 PM 34.0 °F 23.8 °F 30.2 °F 86% 30.08 in 10.0 mi North 16.1 mph - N/A   Overcast
2:55 PM 34.0 °F 24.6 °F 30.2 °F 86% 30.09 in 10.0 mi North 13.8 mph 17.3 mph N/A   Overcast
3:15 PM 33.8 °F 23.9 °F 30.0 °F 86% 30.07 in 10.0 mi North 15.0 mph 20.7 mph N/A   Light Drizzle
3:35 PM 33.8 °F 23.9 °F 30.0 °F 86% 30.08 in 10.0 mi North 15.0 mph - N/A   Overcast
3:55 PM 33.8 °F 23.5 °F 30.2 °F 87% 30.08 in 10.0 mi North 16.1 mph 20.7 mph N/A Rain Light Rain
4:15 PM 33.8 °F 24.3 °F 30.2 °F 87% 30.07 in 10.0 mi North 13.8 mph - N/A Rain Light Rain
4:35 PM 33.8 °F 24.3 °F 30.4 °F 87% 30.06 in 7.0 mi North 13.8 mph - N/A Rain Rain
4:55 PM 33.8 °F 23.2 °F 30.4 °F 87% 30.05 in 5.0 mi North 17.3 mph 25.3 mph N/A Rain Rain
5:15 PM 33.8 °F 22.5 °F 30.9 °F 89% 30.04 in 10.0 mi North 19.6 mph 28.8 mph N/A Rain Light Rain
5:35 PM 33.8 °F 23.5 °F 30.9 °F 89% 30.03 in 10.0 mi North 16.1 mph 25.3 mph N/A   Overcast
5:55 PM 33.6 °F 23.7 °F 30.9 °F 90% 30.04 in 10.0 mi North 15.0 mph 19.6 mph N/A   Light Drizzle
6:15 PM 33.6 °F 23.3 °F 30.9 °F 90% 30.05 in 10.0 mi North 16.1 mph 23.0 mph N/A Rain Light Rain
6:35 PM 33.4 °F 23.5 °F 30.7 °F 90% 30.04 in 10.0 mi North 15.0 mph 20.7 mph N/A Rain Rain
6:55 PM 33.3 °F 23.2 °F 30.7 °F 90% 30.04 in 7.0 mi North 15.0 mph - N/A Rain Light Rain
7:15 PM 33.3 °F 22.5 °F 30.9 °F 91% 30.04 in 10.0 mi North 17.3 mph 23.0 mph N/A Rain Rain
7:35 PM 33.3 °F 23.2 °F 31.1 °F 92% 30.05 in 5.0 mi North 15.0 mph 21.9 mph N/A Rain Light Rain
7:55 PM 33.3 °F 23.2 °F 31.1 °F 92% 30.04 in 10.0 mi North 15.0 mph 20.7 mph N/A Rain Light Rain
8:15 PM 33.1 °F 23.0 °F 31.1 °F 92% 30.05 in 7.0 mi North 15.0 mph - N/A Rain Light Rain
8:35 PM 33.1 °F 23.4 °F 31.1 °F 92% 30.05 in 10.0 mi North 13.8 mph 19.6 mph N/A   Drizzle
8:55 PM 33.3 °F 23.2 °F 31.5 °F 93% 30.04 in 7.0 mi North 15.0 mph - N/A   Light Drizzle
9:15 PM 33.1 °F 21.9 °F 31.6 °F 94% 30.04 in 10.0 mi North 18.4 mph - N/A   Overcast
9:35 PM 33.1 °F 22.6 °F 31.5 °F 94% 30.04 in 10.0 mi North 16.1 mph 21.9 mph N/A   Light Drizzle
9:55 PM 33.3 °F 22.8 °F 31.6 °F 94% 30.04 in 10.0 mi North 16.1 mph 23.0 mph N/A   Drizzle
10:15 PM 33.3 °F 22.1 °F 31.6 °F 94% 30.03 in 10.0 mi North 18.4 mph - N/A Rain Light Rain
10:55 PM 33.3 °F 22.8 °F 31.6 °F 94% 30.02 in 10.0 mi North 16.1 mph - N/A Rain Rain
11:15 PM 33.3 °F 22.8 °F 31.8 °F 94% 30.02 in 10.0 mi North 16.1 mph 21.9 mph N/A Rain Rain
11:35 PM 33.3 °F 22.5 °F 31.8 °F 94% 30.01 in 10.0 mi North 17.3 mph 23.0 mph N/A   Drizzle
11:55 PM 33.3 °F 22.5 °F 31.8 °F 94% 29.99 in 10.0 mi North 17.3 mph 24.2 mph N/A Rain Rain